sensor_id;sensor_type;location;lat;lon;timestamp;P1;durP1;ratioP1;P2;durP2;ratioP2
52380;SDS011;38310;52.796;6.942;2024-03-25T00:00:19;13.25;;;5.35;;
52380;SDS011;38310;52.796;6.942;2024-03-25T00:02:46;9.90;;;4.93;;
52380;SDS011;38310;52.796;6.942;2024-03-25T00:05:11;16.30;;;5.30;;
52380;SDS011;38310;52.796;6.942;2024-03-25T00:07:40;12.98;;;5.43;;
52380;SDS011;38310;52.796;6.942;2024-03-25T00:10:06;10.75;;;5.00;;
52380;SDS011;38310;52.796;6.942;2024-03-25T00:12:34;10.45;;;4.95;;
52380;SDS011;38310;52.796;6.942;2024-03-25T00:15:00;12.38;;;4.90;;
52380;SDS011;38310;52.796;6.942;2024-03-25T00:17:26;15.48;;;4.65;;
52380;SDS011;38310;52.796;6.942;2024-03-25T00:19:52;11.10;;;4.95;;
52380;SDS011;38310;52.796;6.942;2024-03-25T00:22:18;13.85;;;4.95;;
52380;SDS011;38310;52.796;6.942;2024-03-25T00:24:45;12.43;;;5.18;;
52380;SDS011;38310;52.796;6.942;2024-03-25T00:27:11;13.30;;;5.00;;
52380;SDS011;38310;52.796;6.942;2024-03-25T00:29:40;10.95;;;5.00;;
52380;SDS011;38310;52.796;6.942;2024-03-25T00:32:06;12.90;;;4.68;;
52380;SDS011;38310;52.796;6.942;2024-03-25T00:34:32;13.95;;;4.78;;
52380;SDS011;38310;52.796;6.942;2024-03-25T00:36:58;16.45;;;5.47;;
52380;SDS011;38310;52.796;6.942;2024-03-25T00:39:24;20.98;;;5.57;;
52380;SDS011;38310;52.796;6.942;2024-03-25T00:41:51;12.98;;;5.50;;
52380;SDS011;38310;52.796;6.942;2024-03-25T00:44:17;15.25;;;5.25;;
52380;SDS011;38310;52.796;6.942;2024-03-25T00:46:43;11.13;;;4.88;;
52380;SDS011;38310;52.796;6.942;2024-03-25T00:49:09;14.25;;;5.80;;
52380;SDS011;38310;52.796;6.942;2024-03-25T00:51:36;13.63;;;5.10;;
52380;SDS011;38310;52.796;6.942;2024-03-25T00:54:02;14.55;;;5.82;;
52380;SDS011;38310;52.796;6.942;2024-03-25T00:56:28;14.18;;;5.97;;
52380;SDS011;38310;52.796;6.942;2024-03-25T00:58:54;16.75;;;5.03;;
52380;SDS011;38310;52.796;6.942;2024-03-25T01:01:22;16.85;;;5.65;;
52380;SDS011;38310;52.796;6.942;2024-03-25T01:03:48;17.33;;;5.15;;
52380;SDS011;38310;52.796;6.942;2024-03-25T01:06:13;13.50;;;5.20;;
52380;SDS011;38310;52.796;6.942;2024-03-25T01:08:39;11.73;;;5.20;;
52380;SDS011;38310;52.796;6.942;2024-03-25T01:11:05;12.90;;;5.10;;
52380;SDS011;38310;52.796;6.942;2024-03-25T01:13:31;16.30;;;5.53;;
52380;SDS011;38310;52.796;6.942;2024-03-25T01:15:57;16.08;;;5.72;;
52380;SDS011;38310;52.796;6.942;2024-03-25T01:18:22;13.50;;;5.75;;
52380;SDS011;38310;52.796;6.942;2024-03-25T01:20:48;21.70;;;6.47;;
52380;SDS011;38310;52.796;6.942;2024-03-25T01:23:15;15.48;;;5.05;;
52380;SDS011;38310;52.796;6.942;2024-03-25T01:25:41;13.32;;;5.68;;
52380;SDS011;38310;52.796;6.942;2024-03-25T01:28:06;16.73;;;6.32;;
52380;SDS011;38310;52.796;6.942;2024-03-25T01:30:32;14.88;;;5.47;;
52380;SDS011;38310;52.796;6.942;2024-03-25T01:33:00;14.07;;;5.65;;
52380;SDS011;38310;52.796;6.942;2024-03-25T01:35:28;12.15;;;5.50;;
52380;SDS011;38310;52.796;6.942;2024-03-25T01:37:54;13.77;;;5.60;;
52380;SDS011;38310;52.796;6.942;2024-03-25T01:40:20;20.83;;;5.78;;
52380;SDS011;38310;52.796;6.942;2024-03-25T01:42:58;18.17;;;5.68;;
52380;SDS011;38310;52.796;6.942;2024-03-25T01:45:25;15.60;;;6.32;;
52380;SDS011;38310;52.796;6.942;2024-03-25T01:47:52;17.75;;;6.25;;
52380;SDS011;38310;52.796;6.942;2024-03-25T01:50:19;14.73;;;5.95;;
52380;SDS011;38310;52.796;6.942;2024-03-25T01:52:46;16.92;;;6.28;;
52380;SDS011;38310;52.796;6.942;2024-03-25T01:55:12;14.43;;;5.93;;
52380;SDS011;38310;52.796;6.942;2024-03-25T01:57:45;16.70;;;6.38;;
52380;SDS011;38310;52.796;6.942;2024-03-25T02:13:14;20.35;;;6.40;;
52380;SDS011;38310;52.796;6.942;2024-03-25T02:15:41;18.23;;;6.68;;
52380;SDS011;38310;52.796;6.942;2024-03-25T02:18:07;17.13;;;6.43;;
52380;SDS011;38310;52.796;6.942;2024-03-25T02:20:32;21.33;;;6.82;;
52380;SDS011;38310;52.796;6.942;2024-03-25T02:22:58;16.30;;;6.63;;
52380;SDS011;38310;52.796;6.942;2024-03-25T02:25:24;17.67;;;6.45;;
52380;SDS011;38310;52.796;6.942;2024-03-25T02:27:50;19.35;;;6.47;;
52380;SDS011;38310;52.796;6.942;2024-03-25T02:30:16;18.70;;;6.65;;
52380;SDS011;38310;52.796;6.942;2024-03-25T02:32:41;21.80;;;6.95;;
52380;SDS011;38310;52.796;6.942;2024-03-25T02:35:08;18.27;;;6.53;;
52380;SDS011;38310;52.796;6.942;2024-03-25T02:37:37;14.95;;;6.35;;
52380;SDS011;38310;52.796;6.942;2024-03-25T02:40:04;22.75;;;7.75;;
52380;SDS011;38310;52.796;6.942;2024-03-25T02:42:32;16.42;;;6.80;;
52380;SDS011;38310;52.796;6.942;2024-03-25T02:44:58;18.58;;;6.68;;
52380;SDS011;38310;52.796;6.942;2024-03-25T02:47:24;17.77;;;6.95;;
52380;SDS011;38310;52.796;6.942;2024-03-25T02:49:50;19.00;;;7.07;;
52380;SDS011;38310;52.796;6.942;2024-03-25T02:52:16;18.77;;;6.57;;
52380;SDS011;38310;52.796;6.942;2024-03-25T02:54:43;16.10;;;6.15;;
52380;SDS011;38310;52.796;6.942;2024-03-25T02:57:08;18.00;;;6.80;;
52380;SDS011;38310;52.796;6.942;2024-03-25T02:59:34;19.23;;;7.40;;
52380;SDS011;38310;52.796;6.942;2024-03-25T03:02:00;20.15;;;6.38;;
52380;SDS011;38310;52.796;6.942;2024-03-25T03:04:26;21.38;;;6.55;;
52380;SDS011;38310;52.796;6.942;2024-03-25T03:06:51;16.55;;;7.15;;
52380;SDS011;38310;52.796;6.942;2024-03-25T03:09:17;27.10;;;7.32;;
52380;SDS011;38310;52.796;6.942;2024-03-25T03:11:43;22.65;;;7.45;;
52380;SDS011;38310;52.796;6.942;2024-03-25T03:14:08;15.40;;;6.45;;
52380;SDS011;38310;52.796;6.942;2024-03-25T03:16:34;19.67;;;7.45;;
52380;SDS011;38310;52.796;6.942;2024-03-25T03:19:00;18.70;;;6.38;;
52380;SDS011;38310;52.796;6.942;2024-03-25T03:21:26;18.00;;;6.90;;
52380;SDS011;38310;52.796;6.942;2024-03-25T03:23:52;18.42;;;6.57;;
52380;SDS011;38310;52.796;6.942;2024-03-25T03:26:18;14.68;;;6.43;;
52380;SDS011;38310;52.796;6.942;2024-03-25T03:28:44;13.45;;;5.97;;
52380;SDS011;38310;52.796;6.942;2024-03-25T03:31:09;16.00;;;6.45;;
52380;SDS011;38310;52.796;6.942;2024-03-25T03:33:35;19.88;;;6.43;;
52380;SDS011;38310;52.796;6.942;2024-03-25T03:36:01;19.92;;;6.22;;
52380;SDS011;38310;52.796;6.942;2024-03-25T03:38:27;16.50;;;6.18;;
52380;SDS011;38310;52.796;6.942;2024-03-25T03:40:59;23.52;;;6.90;;
52380;SDS011;38310;52.796;6.942;2024-03-25T03:43:25;21.40;;;6.27;;
52380;SDS011;38310;52.796;6.942;2024-03-25T03:45:52;19.20;;;6.53;;
52380;SDS011;38310;52.796;6.942;2024-03-25T03:48:17;19.50;;;6.53;;
52380;SDS011;38310;52.796;6.942;2024-03-25T03:50:43;17.92;;;6.47;;
52380;SDS011;38310;52.796;6.942;2024-03-25T03:53:09;17.90;;;6.35;;
52380;SDS011;38310;52.796;6.942;2024-03-25T03:55:35;21.17;;;6.53;;
52380;SDS011;38310;52.796;6.942;2024-03-25T03:58:01;19.55;;;6.80;;
52380;SDS011;38310;52.796;6.942;2024-03-25T04:00:27;20.83;;;6.80;;
52380;SDS011;38310;52.796;6.942;2024-03-25T04:02:53;18.60;;;5.88;;
52380;SDS011;38310;52.796;6.942;2024-03-25T04:05:19;15.57;;;6.05;;
52380;SDS011;38310;52.796;6.942;2024-03-25T04:07:45;24.17;;;6.82;;
52380;SDS011;38310;52.796;6.942;2024-03-25T04:10:10;16.17;;;5.60;;
52380;SDS011;38310;52.796;6.942;2024-03-25T04:12:36;16.08;;;6.50;;
52380;SDS011;38310;52.796;6.942;2024-03-25T04:15:04;20.35;;;5.68;;
52380;SDS011;38310;52.796;6.942;2024-03-25T04:17:29;16.55;;;6.28;;
52380;SDS011;38310;52.796;6.942;2024-03-25T04:19:58;20.20;;;6.20;;
52380;SDS011;38310;52.796;6.942;2024-03-25T04:22:25;15.38;;;6.43;;
52380;SDS011;38310;52.796;6.942;2024-03-25T04:24:51;19.05;;;6.07;;
52380;SDS011;38310;52.796;6.942;2024-03-25T04:27:17;15.23;;;5.75;;
52380;SDS011;38310;52.796;6.942;2024-03-25T04:29:45;16.98;;;6.88;;
52380;SDS011;38310;52.796;6.942;2024-03-25T04:32:11;14.95;;;6.03;;
52380;SDS011;38310;52.796;6.942;2024-03-25T04:34:37;15.70;;;6.78;;
52380;SDS011;38310;52.796;6.942;2024-03-25T04:37:03;16.10;;;6.30;;
52380;SDS011;38310;52.796;6.942;2024-03-25T04:39:29;25.48;;;7.00;;
52380;SDS011;38310;52.796;6.942;2024-03-25T04:41:55;20.02;;;5.82;;
52380;SDS011;38310;52.796;6.942;2024-03-25T04:44:21;20.70;;;6.55;;
52380;SDS011;38310;52.796;6.942;2024-03-25T04:46:47;20.15;;;7.05;;
52380;SDS011;38310;52.796;6.942;2024-03-25T04:49:13;17.90;;;6.47;;
52380;SDS011;38310;52.796;6.942;2024-03-25T04:51:38;14.77;;;6.00;;
52380;SDS011;38310;52.796;6.942;2024-03-25T04:54:04;21.58;;;7.15;;
52380;SDS011;38310;52.796;6.942;2024-03-25T04:56:30;18.08;;;5.88;;
52380;SDS011;38310;52.796;6.942;2024-03-25T04:58:56;21.20;;;5.45;;
52380;SDS011;38310;52.796;6.942;2024-03-25T05:01:26;14.32;;;5.65;;
52380;SDS011;38310;52.796;6.942;2024-03-25T05:03:53;15.70;;;6.45;;
52380;SDS011;38310;52.796;6.942;2024-03-25T05:06:18;14.50;;;5.78;;
52380;SDS011;38310;52.796;6.942;2024-03-25T05:08:44;15.65;;;5.90;;
52380;SDS011;38310;52.796;6.942;2024-03-25T05:11:10;18.35;;;5.63;;
52380;SDS011;38310;52.796;6.942;2024-03-25T05:13:36;16.77;;;6.63;;
52380;SDS011;38310;52.796;6.942;2024-03-25T05:16:01;16.02;;;6.03;;
52380;SDS011;38310;52.796;6.942;2024-03-25T05:18:27;18.23;;;5.97;;
52380;SDS011;38310;52.796;6.942;2024-03-25T05:20:53;20.85;;;6.60;;
52380;SDS011;38310;52.796;6.942;2024-03-25T05:23:18;17.70;;;6.30;;
52380;SDS011;38310;52.796;6.942;2024-03-25T05:25:44;16.98;;;6.18;;
52380;SDS011;38310;52.796;6.942;2024-03-25T05:28:10;12.50;;;5.82;;
52380;SDS011;38310;52.796;6.942;2024-03-25T05:30:35;19.38;;;6.85;;
52380;SDS011;38310;52.796;6.942;2024-03-25T05:33:01;15.77;;;5.78;;
52380;SDS011;38310;52.796;6.942;2024-03-25T05:35:27;24.08;;;6.50;;
52380;SDS011;38310;52.796;6.942;2024-03-25T05:37:53;17.95;;;6.03;;
52380;SDS011;38310;52.796;6.942;2024-03-25T05:40:18;17.77;;;6.22;;
52380;SDS011;38310;52.796;6.942;2024-03-25T05:42:44;15.57;;;5.90;;
52380;SDS011;38310;52.796;6.942;2024-03-25T05:45:10;13.93;;;6.35;;
52380;SDS011;38310;52.796;6.942;2024-03-25T05:47:36;16.23;;;6.50;;
52380;SDS011;38310;52.796;6.942;2024-03-25T05:50:05;16.85;;;5.82;;
52380;SDS011;38310;52.796;6.942;2024-03-25T05:52:33;12.15;;;5.78;;
52380;SDS011;38310;52.796;6.942;2024-03-25T05:55:00;18.77;;;6.05;;
52380;SDS011;38310;52.796;6.942;2024-03-25T05:57:26;14.63;;;6.15;;
52380;SDS011;38310;52.796;6.942;2024-03-25T05:59:52;15.68;;;6.38;;
52380;SDS011;38310;52.796;6.942;2024-03-25T06:02:17;15.57;;;6.75;;
52380;SDS011;38310;52.796;6.942;2024-03-25T06:04:43;15.10;;;6.28;;
52380;SDS011;38310;52.796;6.942;2024-03-25T06:07:09;20.23;;;6.45;;
52380;SDS011;38310;52.796;6.942;2024-03-25T06:09:34;18.42;;;6.63;;
52380;SDS011;38310;52.796;6.942;2024-03-25T06:12:00;18.67;;;6.97;;
52380;SDS011;38310;52.796;6.942;2024-03-25T06:14:26;19.98;;;6.65;;
52380;SDS011;38310;52.796;6.942;2024-03-25T06:16:51;15.40;;;6.30;;
52380;SDS011;38310;52.796;6.942;2024-03-25T06:19:17;16.02;;;6.00;;
52380;SDS011;38310;52.796;6.942;2024-03-25T06:21:42;22.25;;;7.47;;
52380;SDS011;38310;52.796;6.942;2024-03-25T06:24:08;22.92;;;7.43;;
52380;SDS011;38310;52.796;6.942;2024-03-25T06:26:34;19.35;;;8.23;;
52380;SDS011;38310;52.796;6.942;2024-03-25T06:29:00;17.77;;;6.68;;
52380;SDS011;38310;52.796;6.942;2024-03-25T06:31:25;24.80;;;9.73;;
52380;SDS011;38310;52.796;6.942;2024-03-25T06:34:09;17.77;;;8.05;;
52380;SDS011;38310;52.796;6.942;2024-03-25T06:36:47;17.73;;;7.18;;
52380;SDS011;38310;52.796;6.942;2024-03-25T06:39:13;20.23;;;7.25;;
52380;SDS011;38310;52.796;6.942;2024-03-25T06:41:39;18.02;;;6.50;;
52380;SDS011;38310;52.796;6.942;2024-03-25T06:44:05;17.88;;;6.53;;
52380;SDS011;38310;52.796;6.942;2024-03-25T06:46:31;20.88;;;7.18;;
52380;SDS011;38310;52.796;6.942;2024-03-25T06:48:57;18.83;;;6.22;;
52380;SDS011;38310;52.796;6.942;2024-03-25T06:51:23;22.33;;;7.32;;
52380;SDS011;38310;52.796;6.942;2024-03-25T06:53:48;15.77;;;6.47;;
52380;SDS011;38310;52.796;6.942;2024-03-25T06:56:14;26.60;;;7.03;;
52380;SDS011;38310;52.796;6.942;2024-03-25T06:58:40;15.07;;;5.97;;
52380;SDS011;38310;52.796;6.942;2024-03-25T07:01:09;20.58;;;7.07;;
52380;SDS011;38310;52.796;6.942;2024-03-25T07:03:38;18.90;;;6.55;;
52380;SDS011;38310;52.796;6.942;2024-03-25T07:06:04;15.82;;;6.38;;
52380;SDS011;38310;52.796;6.942;2024-03-25T07:08:30;15.93;;;6.72;;
52380;SDS011;38310;52.796;6.942;2024-03-25T07:10:57;19.35;;;6.35;;
52380;SDS011;38310;52.796;6.942;2024-03-25T07:13:23;21.13;;;5.95;;
52380;SDS011;38310;52.796;6.942;2024-03-25T07:15:49;16.75;;;5.80;;
52380;SDS011;38310;52.796;6.942;2024-03-25T07:18:16;16.55;;;5.93;;
52380;SDS011;38310;52.796;6.942;2024-03-25T07:20:42;12.18;;;5.88;;
52380;SDS011;38310;52.796;6.942;2024-03-25T07:23:09;17.45;;;5.97;;
52380;SDS011;38310;52.796;6.942;2024-03-25T07:25:36;13.88;;;5.65;;
52380;SDS011;38310;52.796;6.942;2024-03-25T07:28:02;15.23;;;5.82;;
52380;SDS011;38310;52.796;6.942;2024-03-25T07:30:28;15.75;;;6.10;;
52380;SDS011;38310;52.796;6.942;2024-03-25T07:32:54;13.95;;;6.00;;
52380;SDS011;38310;52.796;6.942;2024-03-25T07:35:20;14.57;;;5.35;;
52380;SDS011;38310;52.796;6.942;2024-03-25T07:37:46;18.45;;;5.45;;
52380;SDS011;38310;52.796;6.942;2024-03-25T07:40:16;10.88;;;5.25;;
52380;SDS011;38310;52.796;6.942;2024-03-25T07:42:45;13.98;;;4.45;;
52380;SDS011;38310;52.796;6.942;2024-03-25T07:45:10;18.23;;;6.07;;
52380;SDS011;38310;52.796;6.942;2024-03-25T07:47:36;15.90;;;6.07;;
52380;SDS011;38310;52.796;6.942;2024-03-25T07:50:02;18.35;;;5.25;;
52380;SDS011;38310;52.796;6.942;2024-03-25T07:52:29;15.68;;;5.47;;
52380;SDS011;38310;52.796;6.942;2024-03-25T07:54:55;9.30;;;4.80;;
52380;SDS011;38310;52.796;6.942;2024-03-25T07:57:20;16.42;;;4.43;;
52380;SDS011;38310;52.796;6.942;2024-03-25T07:59:46;10.32;;;4.72;;
52380;SDS011;38310;52.796;6.942;2024-03-25T08:02:12;11.45;;;4.25;;
52380;SDS011;38310;52.796;6.942;2024-03-25T08:04:38;16.23;;;4.78;;
52380;SDS011;38310;52.796;6.942;2024-03-25T08:07:04;10.27;;;3.88;;
52380;SDS011;38310;52.796;6.942;2024-03-25T08:09:29;10.07;;;3.80;;
52380;SDS011;38310;52.796;6.942;2024-03-25T08:11:55;12.85;;;4.50;;
52380;SDS011;38310;52.796;6.942;2024-03-25T08:14:21;10.52;;;4.25;;
52380;SDS011;38310;52.796;6.942;2024-03-25T08:16:48;10.13;;;4.25;;
52380;SDS011;38310;52.796;6.942;2024-03-25T08:19:13;10.73;;;4.10;;
52380;SDS011;38310;52.796;6.942;2024-03-25T08:21:40;12.48;;;3.97;;
52380;SDS011;38310;52.796;6.942;2024-03-25T08:24:05;12.02;;;3.85;;
52380;SDS011;38310;52.796;6.942;2024-03-25T08:26:31;11.27;;;4.80;;
52380;SDS011;38310;52.796;6.942;2024-03-25T08:28:57;9.82;;;4.50;;
52380;SDS011;38310;52.796;6.942;2024-03-25T08:31:23;15.60;;;3.58;;
52380;SDS011;38310;52.796;6.942;2024-03-25T08:33:48;9.00;;;3.55;;
52380;SDS011;38310;52.796;6.942;2024-03-25T08:36:14;10.10;;;4.30;;
52380;SDS011;38310;52.796;6.942;2024-03-25T08:38:40;10.82;;;3.83;;
52380;SDS011;38310;52.796;6.942;2024-03-25T08:41:05;10.80;;;4.22;;
52380;SDS011;38310;52.796;6.942;2024-03-25T08:43:31;8.85;;;4.13;;
52380;SDS011;38310;52.796;6.942;2024-03-25T08:45:57;11.95;;;3.88;;
52380;SDS011;38310;52.796;6.942;2024-03-25T08:48:23;13.15;;;3.67;;
52380;SDS011;38310;52.796;6.942;2024-03-25T08:50:49;12.63;;;4.35;;
52380;SDS011;38310;52.796;6.942;2024-03-25T08:53:15;12.43;;;3.85;;
52380;SDS011;38310;52.796;6.942;2024-03-25T08:55:46;15.48;;;4.75;;
52380;SDS011;38310;52.796;6.942;2024-03-25T08:58:15;8.73;;;3.78;;
52380;SDS011;38310;52.796;6.942;2024-03-25T09:00:41;14.70;;;4.22;;
52380;SDS011;38310;52.796;6.942;2024-03-25T09:03:08;11.80;;;4.50;;
52380;SDS011;38310;52.796;6.942;2024-03-25T09:05:34;9.48;;;4.50;;
52380;SDS011;38310;52.796;6.942;2024-03-25T09:08:00;13.63;;;4.25;;
52380;SDS011;38310;52.796;6.942;2024-03-25T09:10:26;11.13;;;4.40;;
52380;SDS011;38310;52.796;6.942;2024-03-25T09:13:11;12.20;;;4.20;;
52380;SDS011;38310;52.796;6.942;2024-03-25T09:15:36;11.05;;;4.20;;
52380;SDS011;38310;52.796;6.942;2024-03-25T09:18:02;11.20;;;3.60;;
52380;SDS011;38310;52.796;6.942;2024-03-25T09:20:28;11.20;;;3.95;;
52380;SDS011;38310;52.796;6.942;2024-03-25T09:22:54;13.75;;;4.32;;
52380;SDS011;38310;52.796;6.942;2024-03-25T09:25:20;9.40;;;3.63;;
52380;SDS011;38310;52.796;6.942;2024-03-25T09:27:46;13.00;;;4.03;;
52380;SDS011;38310;52.796;6.942;2024-03-25T09:30:12;8.85;;;3.10;;
52380;SDS011;38310;52.796;6.942;2024-03-25T09:32:39;9.65;;;3.65;;
52380;SDS011;38310;52.796;6.942;2024-03-25T09:35:06;12.75;;;3.70;;
52380;SDS011;38310;52.796;6.942;2024-03-25T09:37:32;7.22;;;2.90;;
52380;SDS011;38310;52.796;6.942;2024-03-25T09:39:58;11.38;;;3.55;;
52380;SDS011;38310;52.796;6.942;2024-03-25T09:42:27;10.07;;;2.92;;
52380;SDS011;38310;52.796;6.942;2024-03-25T09:44:59;10.15;;;3.10;;
52380;SDS011;38310;52.796;6.942;2024-03-25T09:47:24;9.57;;;3.58;;
52380;SDS011;38310;52.796;6.942;2024-03-25T09:49:51;11.93;;;3.58;;
52380;SDS011;38310;52.796;6.942;2024-03-25T09:52:19;7.63;;;3.33;;
52380;SDS011;38310;52.796;6.942;2024-03-25T09:54:45;10.48;;;3.25;;
52380;SDS011;38310;52.796;6.942;2024-03-25T09:57:11;10.20;;;2.80;;
52380;SDS011;38310;52.796;6.942;2024-03-25T09:59:37;9.90;;;2.92;;
52380;SDS011;38310;52.796;6.942;2024-03-25T10:02:03;10.82;;;3.10;;
52380;SDS011;38310;52.796;6.942;2024-03-25T10:04:30;6.50;;;3.20;;
52380;SDS011;38310;52.796;6.942;2024-03-25T10:06:56;7.97;;;3.22;;
52380;SDS011;38310;52.796;6.942;2024-03-25T10:09:22;6.68;;;3.05;;
52380;SDS011;38310;52.796;6.942;2024-03-25T10:11:48;8.80;;;3.35;;
52380;SDS011;38310;52.796;6.942;2024-03-25T10:14:17;10.13;;;3.50;;
52380;SDS011;38310;52.796;6.942;2024-03-25T10:16:48;9.38;;;3.47;;
52380;SDS011;38310;52.796;6.942;2024-03-25T10:19:14;9.65;;;2.95;;
52380;SDS011;38310;52.796;6.942;2024-03-25T10:21:40;7.20;;;3.35;;
52380;SDS011;38310;52.796;6.942;2024-03-25T10:24:06;10.55;;;3.10;;
52380;SDS011;38310;52.796;6.942;2024-03-25T10:26:33;10.63;;;3.20;;
52380;SDS011;38310;52.796;6.942;2024-03-25T10:29:05;13.65;;;3.70;;
52380;SDS011;38310;52.796;6.942;2024-03-25T10:31:36;8.30;;;3.00;;
52380;SDS011;38310;52.796;6.942;2024-03-25T10:34:01;7.20;;;2.97;;
52380;SDS011;38310;52.796;6.942;2024-03-25T10:36:27;8.32;;;3.15;;
52380;SDS011;38310;52.796;6.942;2024-03-25T10:38:54;11.98;;;3.05;;
52380;SDS011;38310;52.796;6.942;2024-03-25T10:41:21;9.88;;;2.95;;
52380;SDS011;38310;52.796;6.942;2024-03-25T10:43:48;9.98;;;2.92;;
52380;SDS011;38310;52.796;6.942;2024-03-25T10:46:18;7.80;;;2.90;;
52380;SDS011;38310;52.796;6.942;2024-03-25T10:49:06;9.20;;;3.00;;
52380;SDS011;38310;52.796;6.942;2024-03-25T10:51:49;7.75;;;3.13;;
52380;SDS011;38310;52.796;6.942;2024-03-25T10:54:16;9.45;;;2.70;;
52380;SDS011;38310;52.796;6.942;2024-03-25T10:56:42;9.02;;;3.15;;
52380;SDS011;38310;52.796;6.942;2024-03-25T10:59:09;9.52;;;3.20;;
52380;SDS011;38310;52.796;6.942;2024-03-25T11:01:37;11.10;;;3.38;;
52380;SDS011;38310;52.796;6.942;2024-03-25T11:04:03;10.65;;;3.55;;
52380;SDS011;38310;52.796;6.942;2024-03-25T11:06:31;10.18;;;3.22;;
52380;SDS011;38310;52.796;6.942;2024-03-25T11:08:57;9.60;;;2.90;;
52380;SDS011;38310;52.796;6.942;2024-03-25T11:11:30;6.18;;;2.20;;
52380;SDS011;38310;52.796;6.942;2024-03-25T11:13:59;8.65;;;2.65;;
52380;SDS011;38310;52.796;6.942;2024-03-25T11:16:31;8.02;;;2.72;;
52380;SDS011;38310;52.796;6.942;2024-03-25T11:19:03;8.98;;;2.60;;
52380;SDS011;38310;52.796;6.942;2024-03-25T11:21:31;7.00;;;2.45;;
52380;SDS011;38310;52.796;6.942;2024-03-25T11:24:05;10.32;;;2.22;;
52380;SDS011;38310;52.796;6.942;2024-03-25T11:26:32;10.60;;;2.78;;
52380;SDS011;38310;52.796;6.942;2024-03-25T11:29:00;10.93;;;2.70;;
52380;SDS011;38310;52.796;6.942;2024-03-25T11:31:26;9.75;;;2.47;;
52380;SDS011;38310;52.796;6.942;2024-03-25T11:33:53;5.70;;;2.38;;
52380;SDS011;38310;52.796;6.942;2024-03-25T11:36:20;5.72;;;2.42;;
52380;SDS011;38310;52.796;6.942;2024-03-25T11:39:05;7.25;;;2.80;;
52380;SDS011;38310;52.796;6.942;2024-03-25T11:41:41;8.57;;;3.20;;
52380;SDS011;38310;52.796;6.942;2024-03-25T11:44:07;9.88;;;3.28;;
52380;SDS011;38310;52.796;6.942;2024-03-25T11:46:36;6.47;;;2.65;;
52380;SDS011;38310;52.796;6.942;2024-03-25T11:49:21;8.57;;;2.10;;
52380;SDS011;38310;52.796;6.942;2024-03-25T11:51:47;7.93;;;2.90;;
52380;SDS011;38310;52.796;6.942;2024-03-25T11:54:13;8.98;;;2.85;;
52380;SDS011;38310;52.796;6.942;2024-03-25T11:56:39;7.65;;;2.50;;
52380;SDS011;38310;52.796;6.942;2024-03-25T11:59:04;7.63;;;3.00;;
52380;SDS011;38310;52.796;6.942;2024-03-25T12:01:31;6.78;;;2.10;;
52380;SDS011;38310;52.796;6.942;2024-03-25T12:03:57;4.43;;;2.25;;
52380;SDS011;38310;52.796;6.942;2024-03-25T12:06:23;9.82;;;2.53;;
52380;SDS011;38310;52.796;6.942;2024-03-25T12:08:48;6.03;;;2.25;;
52380;SDS011;38310;52.796;6.942;2024-03-25T12:11:33;8.43;;;2.55;;
52380;SDS011;38310;52.796;6.942;2024-03-25T12:14:00;8.15;;;2.75;;
52380;SDS011;38310;52.796;6.942;2024-03-25T12:16:26;9.40;;;2.85;;
52380;SDS011;38310;52.796;6.942;2024-03-25T12:18:52;5.40;;;2.25;;
52380;SDS011;38310;52.796;6.942;2024-03-25T12:21:19;7.80;;;2.85;;
52380;SDS011;38310;52.796;6.942;2024-03-25T12:23:45;9.25;;;2.72;;
52380;SDS011;38310;52.796;6.942;2024-03-25T12:26:12;8.50;;;3.10;;
52380;SDS011;38310;52.796;6.942;2024-03-25T12:28:39;6.93;;;2.83;;
52380;SDS011;38310;52.796;6.942;2024-03-25T12:31:08;8.48;;;2.75;;
52380;SDS011;38310;52.796;6.942;2024-03-25T12:33:48;9.95;;;3.00;;
52380;SDS011;38310;52.796;6.942;2024-03-25T12:36:14;9.57;;;2.72;;
52380;SDS011;38310;52.796;6.942;2024-03-25T12:38:40;9.20;;;2.85;;
52380;SDS011;38310;52.796;6.942;2024-03-25T12:41:10;7.50;;;2.75;;
52380;SDS011;38310;52.796;6.942;2024-03-25T12:43:45;8.20;;;2.75;;
52380;SDS011;38310;52.796;6.942;2024-03-25T12:46:11;8.98;;;2.97;;
52380;SDS011;38310;52.796;6.942;2024-03-25T12:48:38;10.60;;;2.80;;
52380;SDS011;38310;52.796;6.942;2024-03-25T12:51:04;7.57;;;3.20;;
52380;SDS011;38310;52.796;6.942;2024-03-25T12:53:30;12.48;;;2.90;;
52380;SDS011;38310;52.796;6.942;2024-03-25T12:55:55;6.43;;;2.88;;
52380;SDS011;38310;52.796;6.942;2024-03-25T12:58:22;9.77;;;2.85;;
52380;SDS011;38310;52.796;6.942;2024-03-25T13:00:47;9.93;;;2.40;;
52380;SDS011;38310;52.796;6.942;2024-03-25T13:03:13;6.60;;;2.53;;
52380;SDS011;38310;52.796;6.942;2024-03-25T13:05:40;9.77;;;3.03;;
52380;SDS011;38310;52.796;6.942;2024-03-25T13:08:08;6.55;;;2.30;;
52380;SDS011;38310;52.796;6.942;2024-03-25T13:10:34;6.32;;;2.13;;
52380;SDS011;38310;52.796;6.942;2024-03-25T13:13:01;6.57;;;2.30;;
52380;SDS011;38310;52.796;6.942;2024-03-25T13:15:27;10.00;;;2.65;;
52380;SDS011;38310;52.796;6.942;2024-03-25T13:17:53;7.65;;;2.53;;
52380;SDS011;38310;52.796;6.942;2024-03-25T13:20:19;5.60;;;2.20;;
52380;SDS011;38310;52.796;6.942;2024-03-25T13:22:45;7.70;;;2.35;;
52380;SDS011;38310;52.796;6.942;2024-03-25T13:25:12;7.53;;;2.63;;
52380;SDS011;38310;52.796;6.942;2024-03-25T13:27:38;6.07;;;2.25;;
52380;SDS011;38310;52.796;6.942;2024-03-25T13:30:05;6.18;;;2.75;;
52380;SDS011;38310;52.796;6.942;2024-03-25T13:32:31;9.57;;;3.00;;
52380;SDS011;38310;52.796;6.942;2024-03-25T13:34:57;8.05;;;2.28;;
52380;SDS011;38310;52.796;6.942;2024-03-25T13:37:23;7.15;;;2.25;;
52380;SDS011;38310;52.796;6.942;2024-03-25T13:39:49;13.40;;;3.03;;
52380;SDS011;38310;52.796;6.942;2024-03-25T13:42:15;9.02;;;2.85;;
52380;SDS011;38310;52.796;6.942;2024-03-25T13:44:41;6.68;;;2.33;;
52380;SDS011;38310;52.796;6.942;2024-03-25T13:47:07;6.93;;;2.30;;
52380;SDS011;38310;52.796;6.942;2024-03-25T13:49:33;7.78;;;2.47;;
52380;SDS011;38310;52.796;6.942;2024-03-25T13:51:59;9.30;;;2.45;;
52380;SDS011;38310;52.796;6.942;2024-03-25T13:54:28;7.00;;;2.13;;
52380;SDS011;38310;52.796;6.942;2024-03-25T13:56:55;6.93;;;2.00;;
52380;SDS011;38310;52.796;6.942;2024-03-25T13:59:24;7.00;;;1.98;;
52380;SDS011;38310;52.796;6.942;2024-03-25T14:01:50;7.78;;;2.17;;
52380;SDS011;38310;52.796;6.942;2024-03-25T14:04:19;8.15;;;2.20;;
52380;SDS011;38310;52.796;6.942;2024-03-25T14:06:45;5.00;;;2.03;;
52380;SDS011;38310;52.796;6.942;2024-03-25T14:09:27;5.75;;;1.98;;
52380;SDS011;38310;52.796;6.942;2024-03-25T14:11:53;5.68;;;2.38;;
52380;SDS011;38310;52.796;6.942;2024-03-25T14:14:19;10.40;;;2.30;;
52380;SDS011;38310;52.796;6.942;2024-03-25T14:16:44;8.15;;;2.47;;
52380;SDS011;38310;52.796;6.942;2024-03-25T14:19:10;5.80;;;2.03;;
52380;SDS011;38310;52.796;6.942;2024-03-25T14:21:36;5.60;;;1.90;;
52380;SDS011;38310;52.796;6.942;2024-03-25T14:24:04;8.18;;;2.00;;
52380;SDS011;38310;52.796;6.942;2024-03-25T14:26:30;9.45;;;2.25;;
52380;SDS011;38310;52.796;6.942;2024-03-25T14:28:56;3.95;;;2.00;;
52380;SDS011;38310;52.796;6.942;2024-03-25T14:31:22;5.38;;;2.20;;
52380;SDS011;38310;52.796;6.942;2024-03-25T14:33:48;7.43;;;2.05;;
52380;SDS011;38310;52.796;6.942;2024-03-25T14:36:13;7.05;;;2.35;;
52380;SDS011;38310;52.796;6.942;2024-03-25T14:38:39;7.72;;;2.30;;
52380;SDS011;38310;52.796;6.942;2024-03-25T14:41:05;8.00;;;2.40;;
52380;SDS011;38310;52.796;6.942;2024-03-25T14:43:31;10.07;;;2.55;;
52380;SDS011;38310;52.796;6.942;2024-03-25T14:45:56;7.05;;;2.42;;
52380;SDS011;38310;52.796;6.942;2024-03-25T14:48:22;5.00;;;2.17;;